Airfield :
LOGIN :

Register | Disclaimer

   EN    FR    IT 

 










Legend :    VFR   Marginal VFR   IFR   Intensive IFR   Very Intensive IFR
Visi :
Ceiling :
>= 8 km
>= 3000ft
5 to 8 km
1000 to 3000 ft
1500m to 5 km
500 to 1000 ft
800 to 1500m
200 to 500 ft
< 800m
< 200 ft
Symbols :   Thunderstorms  Fog  Heavy snow  Heavy precipitations  Wind > 20 kt
SIGMETs :     Misc.  Thunderstorms  Icing  Turbulence  Mountain Waves  Volcanic Ashes







- Airport Elevation : 408 ft
- IATA code : FKB


EDSB - Karlsruhe Baden Baden

CURRENT METAR :
  • 180250Z AUTO 23006KT 9999 BKN036/// 01/M01 Q1017

EXPIRED METARs :
  • 180220Z AUTO 22006KT 9999 FEW036/// BKN047/// 01/M02 Q1017
  • 180150Z AUTO 22008KT 9999 FEW034/// SCT039/// BKN046/// 01/M02 Q1017
  • 180120Z AUTO 22006KT 9999 BKN042/// 01/M02 Q1016
  • 180050Z AUTO 24007KT 9999 SCT042/// BKN049/// 02/M01 Q1016
  • 180020Z AUTO 22008KT 9999 BKN048/// 01/M01 Q1016
  • 172350Z AUTO 21009KT 9999 BKN041/// 01/M01 Q1015

TAF TAF EDSB
Valid from the 17 at 18:00 until the 18 at 18:00 UTC


171700Z 1718/1818 23012KT 9999 SCT030
TEMPO 1718/1721 26015G25KT 4000 SHSNRA BKN012 BKN020CB
BECMG 1722/1724 22007KT
BECMG 1815/1817 VRB03KT
No reported NOTAMs for that airfield.



MET'MAP, your aeronautical weather chart ! - Copyright ORBIFLY December 2007 - Disclaimer

ORBIFLY MET'MAP TEAM :

Programming & Development : Alexandra Zaïnal
Concept & Development : Baudouin d'Aumeries
Co-Development & Prog : Marc-Olivier Méhu
Technical & hardware support : Manuel Goepfert

Contact : metmap@orbifly.com




SOURCES & CREDITS :

   NOAA